Terminal Aerodrome Forecast
Issued by NWS Melbourne, FL

Home | Current Version | Previous Version | Text Only | Print | Product List | Glossary On
Versions: 1 2 3 4 5 6 7 8 9 10 11 12 13 14 15 16 17 18
863
FTUS42 KMLB 262342
TAFVRB
TAF
KVRB 262342Z 2700/2724 23006KT P6SM FEW050 SCT250
     FM271400 24006KT P6SM SCT025
     FM272100 13010KT P6SM VCSH BKN040=

USA.gov is the U.S. government's official web portal to all federal, state and local government web resources and services.